| Time | Avg. Air Temp | Dew Point | Avg. Rel Humidity | Avg. 2 Min Wind Speed | Max Gust Velocity | MGV Time | MGV Direction | Avg. Spot Wind Velocity |
|---|---|---|---|---|---|---|---|---|
| 2026-05-09 11:40:00 | 2° C | 2° C | 99% | 8 km/h | 11 km/h | 11:39:00 | SE | 6 km/h |
| 10:40:00 | 2° C | 1° C | 97% | 0 km/h | 2 km/h | 10:36:00 | NE | 0 km/h |
| 09:40:00 | 2° C | 1° C | 92% | 0 km/h | 3 km/h | 09:38:00 | S | 2 km/h |
| 08:40:00 | 1° C | -0° C | 90% | 4 km/h | 6 km/h | 08:36:00 | S | 4 km/h |
| 07:40:00 | 1° C | -1° C | 92% | 0 km/h | 4 km/h | 07:37:00 | W | 1 km/h |
| 06:40:00 | -0° C | -0° C | 100% | 8 km/h | 11 km/h | 06:40:00 | NW | 9 km/h |
| 05:40:00 | -1° C | -2° C | 100% | 15 km/h | 22 km/h | 05:36:00 | NW | 15 km/h |
| 04:40:00 | -1° C | -1° C | 100% | 9 km/h | 18 km/h | 04:37:00 | NW | 12 km/h |
| 03:40:00 | -1° C | -1° C | 100% | 16 km/h | 18 km/h | 03:39:00 | NW | 16 km/h |
| 02:40:00 | -1° C | -1° C | 100% | 15 km/h | 16 km/h | 02:37:00 | NW | 13 km/h |
| 01:40:00 | -0° C | -0° C | 100% | 19 km/h | 21 km/h | 01:40:00 | NW | 19 km/h |
| 00:40:00 | 0° C | 0° C | 100% | 12 km/h | 15 km/h | 00:40:00 | W | 11 km/h |
| 23:40:00 | 0° C | -0° C | 98% | 18 km/h | 20 km/h | 23:37:00 | W | 18 km/h |
| 22:40:00 | 0° C | 0° C | 100% | 8 km/h | 14 km/h | 22:37:00 | W | 9 km/h |
| 21:40:00 | 1° C | -1° C | 89% | 12 km/h | 16 km/h | 21:36:00 | W | 13 km/h |
| 20:40:00 | 1° C | 1° C | 100% | 7 km/h | 10 km/h | 20:38:00 | NW | 7 km/h |
| 19:40:00 | 1° C | 1° C | 100% | 14 km/h | 15 km/h | 19:39:00 | W | 11 km/h |
| 18:40:00 | 2° C | 1° C | 95% | 13 km/h | 19 km/h | 18:40:00 | W | 14 km/h |
| 17:40:00 | 2° C | 2° C | 96% | 14 km/h | 15 km/h | 17:40:00 | S | 14 km/h |
| 16:40:00 | 3° C | 1° C | 89% | 16 km/h | 18 km/h | 16:36:00 | S | 16 km/h |
| 15:40:00 | 3° C | 0° C | 81% | 15 km/h | 17 km/h | 15:39:00 | S | 14 km/h |
| 14:40:00 | 4° C | -0° C | 75% | 12 km/h | 19 km/h | 14:36:00 | S | 14 km/h |
| 13:40:00 | 5° C | -1° C | 62% | 11 km/h | 13 km/h | 13:40:00 | S | 11 km/h |
| 12:40:00 | 4° C | -2° C | 64% | 10 km/h | 13 km/h | 12:37:00 | S | 11 km/h |
Subpeak Weather
| Time | Avg. Air Temp | Dew Point | Avg. Rel Humidity | Avg. 2 Min Wind Speed | Max Gust Velocity | MGV Time | MGV Direction | Avg. Spot Wind Velocity |
|---|---|---|---|---|---|---|---|---|
| 2026-05-09 11:40:00 | 2° C | 2° C | 99% | 8 km/h | 11 km/h | 11:39:00 | SE | 6 km/h |
| 11:35:00 | 2° C | 2° C | 99% | 5 km/h | 10 km/h | 11:32:00 | SW | 6 km/h |
| 11:30:00 | 2° C | 2° C | 97% | 3 km/h | 11 km/h | 11:26:00 | S | 4 km/h |
| 11:25:00 | 2° C | 2° C | 94% | 1 km/h | 10 km/h | 11:21:00 | SE | 4 km/h |
| 11:20:00 | 3° C | 2° C | 96% | 6 km/h | 9 km/h | 11:20:00 | S | 5 km/h |
| 11:15:00 | 2° C | 2° C | 97% | 6 km/h | 10 km/h | 11:12:00 | SE | 6 km/h |
| 11:10:00 | 2° C | 2° C | 99% | 1 km/h | 4 km/h | 11:06:00 | SE | 1 km/h |
| 11:05:00 | 2° C | 2° C | 98% | 6 km/h | 9 km/h | 11:04:00 | S | 4 km/h |
| 11:00:00 | 2° C | 1° C | 92% | 2 km/h | 4 km/h | 10:57:00 | SE | 2 km/h |
| 10:55:00 | 2° C | 1° C | 90% | 0 km/h | 3 km/h | 10:51:00 | E | 1 km/h |
| 10:50:00 | 2° C | 0° C | 91% | 1 km/h | 4 km/h | 10:50:00 | NW | 1 km/h |
| 10:45:00 | 2° C | 1° C | 94% | 0 km/h | 0 km/h | 10:45:00 | E | 0 km/h |
| 10:40:00 | 2° C | 1° C | 97% | 0 km/h | 2 km/h | 10:36:00 | NE | 0 km/h |




